Time;durP1;ratioP1;P1;durP2;ratioP2;P2;SDS_P1;SDS_P2;PMS_P1;PMS_P2;Temp;Humidity;BMP_temperature;BMP_pressure;BME280_temperature;BME280_humidity;BME280_pressure;Samples;Min_cycle;Max_cycle;Signal;HPM_P1;HPM_P2
2023/12/21 00:01:08;;;;;;;0.68;0.68;;;;;;;8.14;99.60;100072.47;4985537;28;20041;-90
2023/12/21 00:03:33;;;;;;;0.80;0.80;;;;;;;7.86;99.61;100023.63;4988496;28;20061;-89
2023/12/21 00:05:59;;;;;;;0.70;0.70;;;;;;;8.04;99.30;100042.66;4990421;28;20026;-91
2023/12/21 00:08:24;;;;;;;0.70;0.70;;;;;;;7.94;99.93;100030.53;4982471;28;20057;-89
2023/12/21 00:10:50;;;;;;;0.80;0.80;;;;;;;7.99;100.00;100036.59;4988194;28;20077;-90
2023/12/21 00:13:15;;;;;;;0.73;0.73;;;;;;;8.05;100.00;100056.78;4970574;28;20082;-91
2023/12/21 00:15:41;;;;;;;0.73;0.73;;;;;;;7.95;100.00;100037.59;4987940;28;20031;-90
2023/12/21 00:18:07;;;;;;;0.80;0.80;;;;;;;7.94;100.00;100041.13;4969377;28;20046;-89
2023/12/21 00:20:32;;;;;;;0.70;0.70;;;;;;;7.95;100.00;100027.00;4985583;28;20127;-89
2023/12/21 00:22:58;;;;;;;0.80;0.80;;;;;;;8.07;100.00;100047.88;4968288;28;20107;-90
2023/12/21 00:25:23;;;;;;;0.90;0.90;;;;;;;8.00;100.00;100033.06;4989290;28;20026;-90
2023/12/21 00:27:48;;;;;;;0.68;0.68;;;;;;;7.98;100.00;100036.63;4971447;28;20085;-90
2023/12/21 00:30:14;;;;;;;0.75;0.75;;;;;;;8.04;100.00;100047.06;4968502;28;20031;-90
2023/12/21 00:32:40;;;;;;;0.70;0.70;;;;;;;7.87;100.00;99997.13;4983459;28;20114;-90
2023/12/21 00:35:05;;;;;;;0.80;0.80;;;;;;;7.94;100.00;100013.75;4958017;29;20106;-90
2023/12/21 00:37:36;;;;;;;0.80;0.80;;;;;;;7.88;100.00;99992.72;5000783;28;20022;-90
2023/12/21 00:40:05;;;;;;;0.80;0.80;;;;;;;7.97;100.00;100003.13;4971795;28;20062;-89
2023/12/21 00:42:34;;;;;;;0.70;0.70;;;;;;;7.84;100.00;99968.06;4986347;28;20030;-91
2023/12/21 00:44:59;;;;;;;0.65;0.65;;;;;;;7.82;100.00;99983.13;4966183;29;20055;-92
2023/12/21 00:47:25;;;;;;;0.70;0.70;;;;;;;7.69;100.00;99963.09;4967904;29;20027;-91
2023/12/21 00:49:51;;;;;;;0.88;0.88;;;;;;;7.86;100.00;99982.16;4965704;28;20022;-90
2023/12/21 00:52:16;;;;;;;0.80;0.80;;;;;;;7.89;100.00;100021.81;4957227;28;20029;-91
2023/12/21 00:54:42;;;;;;;0.77;0.77;;;;;;;7.82;100.00;99988.41;4968323;28;20035;-91
2023/12/21 00:57:07;;;;;;;0.73;0.73;;;;;;;7.87;100.00;100002.41;4967192;29;20037;-91
2023/12/21 00:59:33;;;;;;;0.80;0.80;;;;;;;7.88;100.00;100004.19;4967252;28;20078;-91
2023/12/21 01:01:58;;;;;;;0.80;0.80;;;;;;;7.96;100.00;100007.53;4972349;28;20098;-92
2023/12/21 01:04:24;;;;;;;0.70;0.70;;;;;;;7.93;100.00;99991.72;4961441;29;20078;-93
2023/12/21 01:06:50;;;;;;;0.80;0.80;;;;;;;7.68;100.00;99932.25;4950631;29;20024;-91
2023/12/21 01:09:16;;;;;;;0.80;0.80;;;;;;;7.83;100.00;99952.22;4965578;29;20023;-93
2023/12/21 01:11:41;;;;;;;0.80;0.80;;;;;;;7.70;100.00;99940.16;4948864;29;20043;-91
2023/12/21 01:14:06;;;;;;;0.65;0.65;;;;;;;7.87;100.00;99961.84;4960409;28;20015;-90
2023/12/21 01:16:32;;;;;;;0.70;0.70;;;;;;;7.82;100.00;99938.09;4964526;28;20093;-91
2023/12/21 01:18:58;;;;;;;0.80;0.80;;;;;;;7.91;100.00;99952.91;4962509;28;20026;-90
2023/12/21 01:21:24;;;;;;;0.70;0.70;;;;;;;7.89;100.00;99930.91;4963672;28;20026;-91
2023/12/21 01:23:50;;;;;;;0.70;0.70;;;;;;;7.91;100.00;99940.56;4961463;29;20019;-89
2023/12/21 01:26:15;;;;;;;0.70;0.70;;;;;;;7.88;100.00;99935.34;4964361;28;20065;-89
2023/12/21 01:28:41;;;;;;;0.70;0.70;;;;;;;7.83;100.00;99931.03;4963645;28;20106;-91
2023/12/21 01:31:07;;;;;;;0.90;0.90;;;;;;;7.78;100.00;99912.63;4945734;28;20044;-90
2023/12/21 01:33:32;;;;;;;0.80;0.80;;;;;;;7.31;100.00;99844.03;4949404;29;20045;-91
2023/12/21 01:35:57;;;;;;;0.90;0.90;;;;;;;7.78;100.00;99936.44;4947746;29;20102;-90
2023/12/21 01:38:23;;;;;;;0.82;0.82;;;;;;;7.72;100.00;99915.41;4950960;29;20085;-92
2023/12/21 01:40:48;;;;;;;0.90;0.90;;;;;;;7.87;100.00;99928.28;4945523;29;20035;-92
2023/12/21 01:43:14;;;;;;;0.70;0.70;;;;;;;7.93;100.00;99938.75;4946786;29;20093;-92
2023/12/21 01:45:39;;;;;;;0.70;0.70;;;;;;;7.70;100.00;99906.63;4947904;29;20093;-91
2023/12/21 01:48:05;;;;;;;0.80;0.80;;;;;;;7.83;100.00;99905.44;4959280;28;20113;-89
2023/12/21 01:50:31;;;;;;;0.70;0.70;;;;;;;7.43;100.00;99841.09;4967176;28;20150;-91
2023/12/21 01:52:59;;;;;;;0.82;0.82;;;;;;;7.48;100.00;99857.72;4955946;29;20506;-90
2023/12/21 01:55:27;;;;;;;0.80;0.80;;;;;;;7.78;100.00;99896.72;4946152;29;20099;-90
2023/12/21 01:57:53;;;;;;;0.80;0.80;;;;;;;7.46;100.00;99867.47;4947375;29;20078;-89
2023/12/21 02:00:37;;;;;;;0.60;0.60;;;;;;;7.82;100.00;99906.31;4943348;29;20307;-91
2023/12/21 02:03:04;;;;;;;0.90;0.90;;;;;;;7.78;100.00;99893.22;4954717;29;20063;-91
2023/12/21 02:05:30;;;;;;;0.80;0.80;;;;;;;7.77;100.00;99887.06;4955619;28;20026;-90
2023/12/21 02:07:55;;;;;;;0.90;0.90;;;;;;;7.82;100.00;99876.34;4964156;28;20038;-91
2023/12/21 02:10:21;;;;;;;0.80;0.80;;;;;;;7.77;100.00;99873.81;4967170;28;20468;-90
2023/12/21 02:12:46;;;;;;;1.00;1.00;;;;;;;7.69;100.00;99857.22;4965499;28;20049;-91
2023/12/21 02:15:12;;;;;;;0.80;0.80;;;;;;;7.74;100.00;99865.09;4965513;28;20035;-92
2023/12/21 02:17:40;;;;;;;0.80;0.80;;;;;;;7.46;100.00;99798.66;4954608;29;20043;-92
2023/12/21 02:20:07;;;;;;;0.80;0.80;;;;;;;7.94;100.00;99876.03;4948414;29;20058;-92
2023/12/21 02:22:36;;;;;;;0.80;0.80;;;;;;;7.97;100.00;99870.69;4945853;29;20646;-91
2023/12/21 02:25:02;;;;;;;0.68;0.68;;;;;;;7.90;100.00;99859.38;4949758;29;20078;-90
2023/12/21 02:27:28;;;;;;;0.77;0.77;;;;;;;7.77;100.00;99835.88;4963195;28;20106;-90
2023/12/21 02:29:53;;;;;;;0.80;0.80;;;;;;;7.77;100.00;99836.75;4966393;28;20030;-91
2023/12/21 02:32:19;;;;;;;0.75;0.75;;;;;;;7.90;100.00;99840.84;4962413;28;20054;-89
2023/12/21 02:34:44;;;;;;;0.80;0.80;;;;;;;7.77;100.00;99805.00;4962415;28;20031;-89
2023/12/21 02:37:09;;;;;;;0.77;0.77;;;;;;;7.54;100.00;99782.63;4967016;28;20034;-91
2023/12/21 02:39:36;;;;;;;0.80;0.80;;;;;;;7.82;100.00;99824.25;4963547;28;20050;-92
2023/12/21 02:42:03;;;;;;;0.85;0.85;;;;;;;7.89;100.00;99809.97;4952401;28;20050;-91
2023/12/21 02:44:32;;;;;;;0.82;0.82;;;;;;;7.87;100.00;99822.34;4948596;29;20090;-91
2023/12/21 02:46:58;;;;;;;0.70;0.70;;;;;;;7.82;100.00;99796.94;4947546;29;20027;-90
2023/12/21 02:49:24;;;;;;;0.80;0.80;;;;;;;7.78;100.00;99790.84;4946584;28;20113;-92
2023/12/21 02:51:49;;;;;;;0.80;0.80;;;;;;;7.86;100.00;99780.91;4962160;28;20030;-91
2023/12/21 02:54:15;;;;;;;0.70;0.70;;;;;;;8.07;100.00;99802.47;4963164;29;20035;-91
2023/12/21 02:56:42;;;;;;;0.80;0.80;;;;;;;8.02;100.00;99800.78;4958510;28;20027;-92
2023/12/21 02:59:07;;;;;;;0.80;0.80;;;;;;;8.00;100.00;99786.75;4969782;28;20042;-91
2023/12/21 03:01:33;;;;;;;0.70;0.70;;;;;;;7.77;100.00;99719.41;4958756;28;20473;-90
2023/12/21 03:04:00;;;;;;;0.70;0.70;;;;;;;8.10;100.00;99775.91;4943878;29;20473;-91
2023/12/21 03:06:25;;;;;;;0.90;0.90;;;;;;;7.80;100.00;99720.19;4945551;29;20142;-90
2023/12/21 03:08:51;;;;;;;0.60;0.60;;;;;;;7.94;100.00;99744.50;4942392;29;20054;-90
2023/12/21 03:11:16;;;;;;;0.70;0.70;;;;;;;7.95;100.00;99767.47;4945747;29;20051;-90
2023/12/21 03:13:42;;;;;;;0.60;0.60;;;;;;;7.70;100.00;99723.97;4941721;29;20054;-90
2023/12/21 03:16:07;;;;;;;0.80;0.80;;;;;;;8.08;100.00;99778.59;4950571;28;20050;-90
2023/12/21 03:18:34;;;;;;;0.70;0.70;;;;;;;7.78;100.00;99716.72;4961884;28;20105;-93
2023/12/21 03:21:00;;;;;;;0.80;0.80;;;;;;;7.80;100.00;99709.59;4962652;28;20476;-89
2023/12/21 03:23:25;;;;;;;0.90;0.90;;;;;;;7.96;100.00;99718.88;4963378;28;20022;-91
2023/12/21 03:25:51;;;;;;;0.73;0.73;;;;;;;8.11;100.00;99729.94;4960914;28;20023;-92
2023/12/21 03:28:16;;;;;;;0.80;0.80;;;;;;;7.82;100.00;99683.94;4961617;28;20016;-90
2023/12/21 03:30:43;;;;;;;0.80;0.80;;;;;;;7.75;100.00;99662.97;4961548;28;20369;-90
2023/12/21 03:33:08;;;;;;;0.80;0.80;;;;;;;8.22;100.00;99759.69;4979017;28;20026;-90
2023/12/21 03:35:34;;;;;;;0.77;0.77;;;;;;;8.14;100.00;99724.59;4981316;28;20080;-90
2023/12/21 03:37:59;;;;;;;0.70;0.70;;;;;;;7.80;100.00;99651.34;4972224;28;20081;-90
2023/12/21 03:40:25;;;;;;;0.60;0.60;;;;;;;8.09;100.00;99705.31;4963054;28;20649;-91
2023/12/21 03:42:52;;;;;;;0.80;0.80;;;;;;;8.18;100.00;99720.91;4961134;28;20091;-91
2023/12/21 03:45:19;;;;;;;0.80;0.80;;;;;;;8.18;100.00;99705.91;4963740;28;20023;-92
2023/12/21 03:47:45;;;;;;;0.80;0.80;;;;;;;7.93;100.00;99652.75;4982020;28;20041;-90
2023/12/21 03:50:10;;;;;;;0.70;0.70;;;;;;;8.28;100.00;99711.84;4980983;28;20034;-91
2023/12/21 03:52:36;;;;;;;0.80;0.80;;;;;;;8.17;100.00;99695.34;4974143;28;20031;-91
2023/12/21 03:55:01;;;;;;;0.70;0.70;;;;;;;8.11;100.00;99666.38;4980235;28;20034;-91
2023/12/21 03:57:27;;;;;;;0.70;0.70;;;;;;;8.24;100.00;99681.06;4977549;28;20034;-91
2023/12/21 03:59:52;;;;;;;0.80;0.80;;;;;;;8.30;100.00;99704.72;4959954;28;20034;-91
2023/12/21 04:02:17;;;;;;;0.65;0.65;;;;;;;8.24;100.00;99683.72;4959106;28;20074;-91
2023/12/21 04:04:43;;;;;;;0.80;0.80;;;;;;;8.01;100.00;99640.16;4970368;28;20109;-91
2023/12/21 04:07:09;;;;;;;0.70;0.70;;;;;;;8.39;100.00;99696.50;4983000;28;20769;-90
2023/12/21 04:09:35;;;;;;;0.70;0.70;;;;;;;8.03;100.00;99637.47;4982393;28;20037;-90
2023/12/21 04:12:00;;;;;;;0.70;0.70;;;;;;;8.19;100.00;99657.28;5002424;28;20026;-90
2023/12/21 04:14:26;;;;;;;0.75;0.75;;;;;;;7.77;100.00;99579.09;4980626;28;20030;-90
2023/12/21 04:16:51;;;;;;;0.90;0.90;;;;;;;8.34;100.00;99663.97;4983055;28;20081;-90
2023/12/21 04:19:18;;;;;;;0.75;0.75;;;;;;;8.07;100.00;99611.75;4975778;28;20037;-89
2023/12/21 04:21:44;;;;;;;0.75;0.75;;;;;;;8.17;100.00;99629.13;4980974;28;20029;-90
2023/12/21 04:24:10;;;;;;;0.60;0.60;;;;;;;8.18;100.00;99604.38;4963433;28;20121;-91
2023/12/21 04:26:35;;;;;;;0.75;0.75;;;;;;;8.44;100.00;99641.56;4965084;28;20033;-91
2023/12/21 04:29:01;;;;;;;0.60;0.60;;;;;;;8.44;100.00;99653.06;4966348;28;20439;-92
2023/12/21 04:31:26;;;;;;;0.60;0.60;;;;;;;8.13;100.00;99622.16;4998817;28;20053;-91
2023/12/21 04:33:52;;;;;;;0.80;0.80;;;;;;;8.40;100.00;99638.16;4984814;28;20033;-88
2023/12/21 04:36:18;;;;;;;0.82;0.82;;;;;;;8.44;100.00;99644.22;4983480;28;20624;-90
2023/12/21 04:38:44;;;;;;;0.80;0.80;;;;;;;8.20;100.00;99597.25;4975746;28;20033;-91
2023/12/21 04:41:10;;;;;;;0.80;0.80;;;;;;;8.45;100.00;99640.69;4963756;28;20042;-91
2023/12/21 04:43:36;;;;;;;0.73;0.73;;;;;;;8.25;100.00;99605.97;4981443;28;20023;-92
2023/12/21 04:46:01;;;;;;;0.73;0.73;;;;;;;8.11;100.00;99577.19;4984045;28;20034;-92
2023/12/21 04:48:26;;;;;;;0.70;0.70;;;;;;;8.34;100.00;99626.88;4979741;28;20064;-92
2023/12/21 04:50:52;;;;;;;0.80;0.80;;;;;;;8.33;100.00;99622.50;4974418;28;20026;-91
2023/12/21 04:53:17;;;;;;;0.77;0.77;;;;;;;8.39;100.00;99628.47;4979331;28;20027;-92
2023/12/21 04:55:43;;;;;;;0.80;0.80;;;;;;;8.42;100.00;99624.88;4962120;28;20023;-92
2023/12/21 04:58:08;;;;;;;0.80;0.80;;;;;;;8.48;100.00;99645.88;4964998;28;20085;-92
2023/12/21 05:00:34;;;;;;;0.80;0.80;;;;;;;8.20;100.00;99586.66;4966696;28;20022;-90
2023/12/21 05:02:59;;;;;;;0.80;0.80;;;;;;;8.46;100.00;99616.78;4962721;28;20396;-93
2023/12/21 05:05:25;;;;;;;0.70;0.70;;;;;;;8.52;100.00;99618.34;4962697;28;20039;-92
2023/12/21 05:07:50;;;;;;;0.70;0.70;;;;;;;8.53;100.00;99620.13;4981419;28;20480;-92
2023/12/21 05:10:15;;;;;;;0.70;0.70;;;;;;;8.33;100.00;99583.63;4965294;28;20019;-91
2023/12/21 05:12:41;;;;;;;0.75;0.75;;;;;;;8.36;100.00;99580.00;4972603;28;20030;-91
2023/12/21 05:15:07;;;;;;;0.70;0.70;;;;;;;8.57;100.00;99619.09;4960983;28;20058;-91
2023/12/21 05:17:33;;;;;;;0.73;0.73;;;;;;;8.54;100.00;99619.19;4961051;28;20022;-91
2023/12/21 05:19:59;;;;;;;0.80;0.80;;;;;;;8.31;100.00;99569.56;4962809;28;20039;-90
2023/12/21 05:22:24;;;;;;;0.75;0.75;;;;;;;8.72;100.00;99640.69;4970558;28;20030;-91
2023/12/21 05:24:50;;;;;;;0.80;0.80;;;;;;;8.57;100.00;99619.09;4996193;28;20014;-92
2023/12/21 05:27:15;;;;;;;0.80;0.80;;;;;;;8.77;100.00;99635.25;4965640;28;20122;-91
2023/12/21 05:29:42;;;;;;;0.70;0.70;;;;;;;8.58;100.00;99616.38;4971449;28;20019;-91
2023/12/21 05:32:07;;;;;;;0.70;0.70;;;;;;;8.69;100.00;99624.03;4982483;28;20050;-92
2023/12/21 05:34:33;;;;;;;0.80;0.80;;;;;;;8.65;100.00;99595.88;4981891;28;20033;-92
2023/12/21 05:36:59;;;;;;;0.90;0.90;;;;;;;8.53;100.00;99594.50;4985900;28;20037;-92
2023/12/21 05:39:25;;;;;;;0.70;0.70;;;;;;;8.57;100.00;99585.50;4984994;28;20026;-91
2023/12/21 05:41:51;;;;;;;0.70;0.70;;;;;;;8.69;100.00;99576.28;4984135;28;20030;-92
2023/12/21 05:44:16;;;;;;;0.80;0.80;;;;;;;8.67;100.00;99580.78;4984792;28;20770;-91
2023/12/21 05:46:42;;;;;;;0.80;0.80;;;;;;;8.65;100.00;99574.69;4971331;28;20037;-91
2023/12/21 05:49:08;;;;;;;0.60;0.60;;;;;;;8.71;100.00;99582.44;4962698;28;20578;-92
2023/12/21 05:51:34;;;;;;;0.80;0.80;;;;;;;8.74;100.00;99584.97;4964335;28;20062;-92
2023/12/21 05:53:59;;;;;;;0.80;0.80;;;;;;;8.65;100.00;99570.22;4961689;28;20033;-91
2023/12/21 05:56:25;;;;;;;0.60;0.60;;;;;;;8.58;100.00;99551.91;4979488;28;20033;-91
2023/12/21 05:58:50;;;;;;;0.65;0.65;;;;;;;8.65;100.00;99558.78;4961948;28;20030;-92
2023/12/21 06:01:16;;;;;;;0.70;0.70;;;;;;;8.66;100.00;99566.66;4963766;28;20023;-90
2023/12/21 06:03:41;;;;;;;0.73;0.73;;;;;;;8.57;100.00;99528.97;4970429;28;20063;-92
2023/12/21 06:06:07;;;;;;;0.80;0.80;;;;;;;8.81;100.00;99560.84;4983497;28;20084;-92
2023/12/21 06:08:32;;;;;;;0.70;0.70;;;;;;;8.71;100.00;99547.97;5003440;28;20030;-92
2023/12/21 06:10:58;;;;;;;0.80;0.80;;;;;;;8.60;100.00;99513.00;4985288;28;20026;-91
2023/12/21 06:13:23;;;;;;;0.65;0.65;;;;;;;8.58;100.00;99522.75;4983648;28;20073;-91
2023/12/21 06:15:49;;;;;;;0.70;0.70;;;;;;;8.72;100.00;99539.06;4981072;28;20031;-92
2023/12/21 06:18:14;;;;;;;0.60;0.60;;;;;;;8.66;100.00;99529.56;4966297;28;20806;-91
2023/12/21 06:20:39;;;;;;;0.75;0.75;;;;;;;8.83;100.00;99542.25;4967459;28;20041;-91
2023/12/21 06:23:05;;;;;;;0.70;0.70;;;;;;;8.79;100.00;99535.31;4980875;28;20745;-92
2023/12/21 06:25:30;;;;;;;0.70;0.70;;;;;;;8.84;100.00;99522.78;4990887;28;20473;-91
2023/12/21 06:27:56;;;;;;;0.75;0.75;;;;;;;8.86;100.00;99510.34;4989324;28;20126;-93
2023/12/21 06:30:21;;;;;;;0.80;0.80;;;;;;;8.80;100.00;99476.03;4972104;28;20046;-92
2023/12/21 06:32:48;;;;;;;0.80;0.80;;;;;;;8.94;100.00;99505.63;4988425;28;20138;-92
2023/12/21 06:35:14;;;;;;;0.73;0.73;;;;;;;9.02;100.00;99522.16;5006270;28;20066;-91
2023/12/21 06:37:39;;;;;;;0.70;0.70;;;;;;;8.97;100.00;99497.56;4984866;28;20053;-92
2023/12/21 06:40:07;;;;;;;0.70;0.70;;;;;;;9.13;100.00;99510.25;4985849;28;20032;-93
2023/12/21 06:42:32;;;;;;;0.55;0.55;;;;;;;8.95;100.00;99505.56;4974821;28;20037;-92
2023/12/21 06:44:58;;;;;;;0.80;0.80;;;;;;;9.07;100.00;99506.94;4985358;28;20034;-92
2023/12/21 06:47:23;;;;;;;0.70;0.70;;;;;;;9.20;100.00;99503.81;4985704;28;20062;-92
2023/12/21 06:49:48;;;;;;;0.80;0.80;;;;;;;8.91;100.00;99447.41;5003524;28;20118;-91
2023/12/21 06:52:14;;;;;;;0.82;0.82;;;;;;;9.06;100.00;99476.03;4986391;28;20030;-92
2023/12/21 06:54:39;;;;;;;0.70;0.70;;;;;;;9.11;100.00;99474.06;4983694;28;20029;-93
2023/12/21 06:57:05;;;;;;;0.70;0.70;;;;;;;9.09;100.00;99482.06;4987462;28;20098;-91
2023/12/21 06:59:30;;;;;;;0.70;0.70;;;;;;;9.15;100.00;99491.63;4985158;28;20068;-91
2023/12/21 07:01:56;;;;;;;0.80;0.80;;;;;;;9.10;100.00;99462.59;4985140;28;20030;-91
2023/12/21 07:04:22;;;;;;;0.80;0.80;;;;;;;9.15;100.00;99468.63;4972658;28;20015;-92
2023/12/21 07:06:47;;;;;;;0.70;0.70;;;;;;;9.06;100.00;99444.22;4977871;28;20026;-91
2023/12/21 07:09:14;;;;;;;0.80;0.80;;;;;;;9.17;100.00;99458.81;4985880;28;20018;-91
2023/12/21 07:11:39;;;;;;;0.70;0.70;;;;;;;9.11;100.00;99442.22;4986636;28;20030;-92
2023/12/21 07:14:05;;;;;;;0.70;0.70;;;;;;;9.35;100.00;99462.59;4986997;28;20042;-92
2023/12/21 07:49:25;;;;;;;0.70;0.70;;;;;;;9.20;100.00;99351.69;1167305;23;20429;-90
2023/12/21 08:06:04;;;;;;;0.70;0.70;;;;;;;9.65;100.00;99429.59;5008213;28;20050;-91
2023/12/21 08:08:29;;;;;;;0.70;0.70;;;;;;;9.65;100.00;99429.59;5006353;28;20079;-90
2023/12/21 08:10:55;;;;;;;0.80;0.80;;;;;;;9.72;100.00;99440.84;4991950;28;20034;-91
2023/12/21 08:13:20;;;;;;;0.70;0.70;;;;;;;9.67;99.91;99421.56;4989395;28;20117;-91
2023/12/21 08:15:45;;;;;;;0.80;0.80;;;;;;;9.67;100.00;99438.34;4988883;28;20464;-91
2023/12/21 08:18:13;;;;;;;0.70;0.70;;;;;;;9.65;99.83;99413.66;4984026;28;20035;-91
2023/12/21 08:20:41;;;;;;;0.70;0.70;;;;;;;9.82;100.00;99452.84;4984287;28;20114;-91
2023/12/21 08:23:07;;;;;;;0.70;0.70;;;;;;;9.76;100.00;99432.69;5003205;28;20026;-91
2023/12/21 08:25:32;;;;;;;0.80;0.80;;;;;;;9.65;100.00;99389.78;5007454;28;20022;-91
2023/12/21 08:27:58;;;;;;;0.73;0.73;;;;;;;9.76;99.74;99392.88;5005273;28;20038;-91
2023/12/21 08:30:24;;;;;;;0.80;0.80;;;;;;;9.80;99.64;99381.19;5002700;28;20023;-92
2023/12/21 09:50:56;;;;;;;0.70;0.70;;;;;;;10.40;98.86;99312.25;1025124;23;20320;-89
2023/12/21 09:53:24;;;;;;;0.60;0.60;;;;;;;10.36;99.39;99312.47;4989945;28;20050;-91
2023/12/21 10:26:52;;;;;;;0.60;0.60;;;;;;;10.64;97.98;99254.50;5002800;28;20058;-91
2023/12/21 10:29:18;;;;;;;0.68;0.68;;;;;;;10.57;97.87;99243.28;4992715;28;20105;-91
2023/12/21 10:31:48;;;;;;;0.63;0.63;;;;;;;10.59;98.28;99236.06;5006848;28;20036;-91
2023/12/21 10:34:17;;;;;;;0.55;0.55;;;;;;;10.70;98.08;99205.47;5004369;28;20081;-90
2023/12/21 10:36:44;;;;;;;0.63;0.63;;;;;;;10.58;97.43;99186.47;4994651;28;20017;-91
2023/12/21 10:39:14;;;;;;;0.75;0.75;;;;;;;10.69;97.00;99193.09;5000695;28;20044;-90
2023/12/21 10:41:44;;;;;;;0.60;0.60;;;;;;;10.63;97.00;99157.00;5001475;28;20030;-90
2023/12/21 10:44:12;;;;;;;0.70;0.70;;;;;;;10.90;97.26;99181.47;5001642;28;20034;-91
2023/12/21 10:46:39;;;;;;;0.70;0.70;;;;;;;10.79;97.05;99162.50;5001176;28;20058;-91
2023/12/21 10:49:10;;;;;;;0.70;0.70;;;;;;;10.82;96.68;99152.56;5003363;28;20061;-91
2023/12/21 10:51:37;;;;;;;0.65;0.65;;;;;;;10.95;97.24;99150.19;4998633;28;20038;-92
2023/12/21 10:54:07;;;;;;;0.63;0.63;;;;;;;10.96;97.20;99138.59;4999138;28;20031;-90
2023/12/21 10:56:33;;;;;;;0.60;0.60;;;;;;;10.99;95.89;99167.75;4982881;28;20033;-92
2023/12/21 10:59:03;;;;;;;0.70;0.70;;;;;;;10.92;96.13;99147.69;4983849;28;20031;-91
2023/12/21 11:01:29;;;;;;;0.45;0.45;;;;;;;10.95;95.71;99129.78;4985198;28;20527;-89
2023/12/21 11:03:59;;;;;;;0.63;0.63;;;;;;;10.93;95.74;99136.09;5002076;28;20399;-91
2023/12/21 11:06:26;;;;;;;0.68;0.68;;;;;;;11.10;95.78;99157.44;4999805;28;20018;-92
2023/12/21 11:08:53;;;;;;;0.70;0.70;;;;;;;10.99;95.55;99151.78;5002045;28;20336;-91
2023/12/21 11:11:22;;;;;;;0.65;0.65;;;;;;;10.88;96.01;99124.78;5003462;28;20030;-92
2023/12/21 11:13:52;;;;;;;0.65;0.65;;;;;;;10.99;95.92;99114.53;5000115;28;20019;-92
2023/12/21 11:16:22;;;;;;;0.70;0.70;;;;;;;11.02;95.85;99090.41;5002715;28;20050;-92
2023/12/21 11:18:49;;;;;;;0.70;0.70;;;;;;;10.99;95.58;99104.72;5002959;28;20025;-90
2023/12/21 11:21:15;;;;;;;0.70;0.70;;;;;;;10.95;95.74;99075.69;4993404;28;20561;-89
2023/12/21 11:23:44;;;;;;;0.70;0.70;;;;;;;11.08;95.65;99084.78;5003922;28;20061;-91
2023/12/21 11:26:10;;;;;;;0.70;0.70;;;;;;;11.02;95.57;99083.28;5002740;28;20043;-92
2023/12/21 11:28:36;;;;;;;0.60;0.60;;;;;;;11.06;95.62;99070.69;5000791;28;20026;-90
2023/12/21 11:31:14;;;;;;;0.70;0.70;;;;;;;11.12;95.06;99065.09;5003903;28;20034;-90
2023/12/21 11:33:40;;;;;;;0.60;0.60;;;;;;;11.18;95.37;99055.00;5001716;28;20038;-90
2023/12/21 11:36:09;;;;;;;0.60;0.60;;;;;;;11.11;94.85;99058.00;5002442;28;20026;-92
2023/12/21 11:38:48;;;;;;;0.60;0.60;;;;;;;11.04;95.26;99045.94;5003169;28;20068;-91
2023/12/21 11:41:14;;;;;;;0.75;0.75;;;;;;;11.18;95.39;99047.00;5002259;28;20077;-90
2023/12/21 11:43:41;;;;;;;0.70;0.70;;;;;;;11.13;95.90;99053.50;5004752;28;20042;-89
2023/12/21 11:46:10;;;;;;;0.60;0.60;;;;;;;11.03;95.97;99020.28;5003100;28;20117;-88
2023/12/21 11:48:37;;;;;;;0.70;0.70;;;;;;;11.08;96.42;99019.13;4997944;28;20037;-88
2023/12/21 11:51:04;;;;;;;0.70;0.70;;;;;;;11.08;96.18;99020.91;5003956;28;20022;-90
2023/12/21 11:53:29;;;;;;;0.70;0.70;;;;;;;10.93;96.70;98982.66;4998519;28;20041;-93
2023/12/21 11:55:55;;;;;;;0.70;0.70;;;;;;;11.06;96.81;99005.03;5006510;28;20026;-91
2023/12/21 11:58:23;;;;;;;0.80;0.80;;;;;;;11.00;97.08;98997.38;5005095;28;20081;-91
2023/12/21 12:00:51;;;;;;;0.70;0.70;;;;;;;11.03;97.86;98986.56;4989439;28;20524;-89
2023/12/21 12:03:17;;;;;;;0.70;0.70;;;;;;;10.97;98.48;98976.22;4983000;28;20046;-92
2023/12/21 12:05:44;;;;;;;0.68;0.68;;;;;;;10.81;98.33;98958.47;5003024;28;20483;-89
2023/12/21 12:08:10;;;;;;;0.70;0.70;;;;;;;10.95;98.69;98978.13;5003687;28;20038;-90
2023/12/21 12:10:35;;;;;;;0.80;0.80;;;;;;;10.91;98.65;98938.41;4995625;28;20029;-89
2023/12/21 12:13:02;;;;;;;0.70;0.70;;;;;;;10.92;98.98;98950.81;5002989;28;20018;-89
2023/12/21 12:15:27;;;;;;;0.70;0.70;;;;;;;10.96;100.00;98957.66;4988600;28;20039;-91
2023/12/21 12:17:54;;;;;;;0.63;0.63;;;;;;;10.80;100.00;98924.81;5001533;28;20011;-91
2023/12/21 12:20:23;;;;;;;0.80;0.80;;;;;;;10.89;100.00;98930.50;4989052;28;20045;-92
2023/12/21 12:22:52;;;;;;;0.80;0.80;;;;;;;10.74;100.00;98922.47;4989655;28;20540;-92
2023/12/21 12:25:18;;;;;;;0.70;0.70;;;;;;;10.81;100.00;98915.91;5006021;28;20050;-92
2023/12/21 12:27:45;;;;;;;0.70;0.70;;;;;;;10.78;100.00;98929.34;4993167;28;20110;-92
2023/12/21 13:56:49;;;;;;;0.60;0.60;;;;;;;11.22;100.00;98850.75;1342926;23;20413;-93
2023/12/21 13:59:14;;;;;;;0.70;0.70;;;;;;;11.14;100.00;98824.53;4984527;28;20080;-91
2023/12/21 14:01:41;;;;;;;0.60;0.60;;;;;;;11.15;100.00;98812.09;4995068;28;20058;-91
2023/12/21 14:04:07;;;;;;;0.70;0.70;;;;;;;11.13;100.00;98806.00;5008419;28;20045;-91
2023/12/21 14:06:34;;;;;;;0.70;0.70;;;;;;;11.23;100.00;98817.84;5005892;23;20038;-91
2023/12/21 14:08:59;;;;;;;0.60;0.60;;;;;;;11.20;100.00;98810.88;4990696;28;20035;-90
2023/12/21 14:11:25;;;;;;;0.68;0.68;;;;;;;11.14;100.00;98815.69;4989264;28;20026;-91
2023/12/21 14:13:50;;;;;;;0.60;0.60;;;;;;;11.23;100.00;98828.50;4983105;28;20034;-91
2023/12/21 14:16:16;;;;;;;0.68;0.68;;;;;;;11.19;100.00;98817.16;4969428;28;20035;-91
2023/12/21 14:18:42;;;;;;;0.63;0.63;;;;;;;11.41;100.00;98838.16;5004457;28;20061;-91
2023/12/21 14:21:07;;;;;;;0.55;0.55;;;;;;;11.34;100.00;98812.78;5006986;28;20022;-91
2023/12/21 14:23:33;;;;;;;0.60;0.60;;;;;;;11.53;100.00;98809.03;5002648;28;20048;-90
2023/12/21 15:49:27;;;;;;;0.60;0.60;;;;;;;12.73;95.05;98730.88;818540;23;20327;-87
2023/12/21 15:51:53;;;;;;;0.50;0.50;;;;;;;12.79;95.04;98738.50;4973585;28;20038;-92
2023/12/21 15:54:18;;;;;;;0.60;0.60;;;;;;;12.84;94.93;98753.28;4970252;28;20015;-92
2023/12/21 15:56:44;;;;;;;0.60;0.60;;;;;;;12.83;94.57;98732.88;4967802;28;20039;-90
2023/12/21 15:59:09;;;;;;;0.60;0.60;;;;;;;12.74;95.26;98729.91;4964249;28;20062;-90
2023/12/21 16:01:35;;;;;;;0.60;0.60;;;;;;;12.84;95.27;98737.28;4966695;28;20033;-92
2023/12/21 16:04:00;;;;;;;0.60;0.60;;;;;;;12.84;95.03;98739.06;4980106;28;20015;-90
2023/12/21 16:06:26;;;;;;;0.60;0.60;;;;;;;12.85;96.25;98744.31;4978715;28;20030;-91
2023/12/21 16:08:54;;;;;;;0.50;0.50;;;;;;;12.80;99.29;98746.41;4950817;28;20015;-92
2023/12/21 16:11:23;;;;;;;0.60;0.60;;;;;;;12.68;100.00;98746.31;4957638;28;20161;-92
2023/12/21 16:13:51;;;;;;;0.50;0.50;;;;;;;12.71;100.00;98755.00;4954413;29;20436;-93
2023/12/21 17:01:46;;;;;;;0.60;0.60;;;;;;;12.01;100.00;98786.78;4985425;28;20054;-91
2023/12/21 17:04:12;;;;;;;0.70;0.70;;;;;;;12.02;100.00;98793.84;4969290;28;20034;-91
2023/12/21 17:06:37;;;;;;;0.70;0.70;;;;;;;11.96;100.00;98796.00;4979582;28;20019;-91
2023/12/21 17:09:04;;;;;;;0.65;0.65;;;;;;;11.80;100.00;98782.69;4951667;29;20089;-92
2023/12/21 17:11:30;;;;;;;0.60;0.60;;;;;;;12.03;100.00;98816.88;4947106;29;20054;-92
2023/12/21 17:13:55;;;;;;;0.60;0.60;;;;;;;12.06;100.00;98816.69;4951498;28;20037;-90
2023/12/21 17:16:23;;;;;;;0.60;0.60;;;;;;;11.98;100.00;98820.78;4949696;29;20126;-92
2023/12/21 17:18:49;;;;;;;0.60;0.60;;;;;;;12.04;100.00;98826.59;4949090;29;20027;-91
2023/12/21 17:21:15;;;;;;;0.70;0.70;;;;;;;12.05;100.00;98825.66;4959364;28;20034;-91
2023/12/21 17:23:41;;;;;;;0.60;0.60;;;;;;;11.79;100.00;98783.66;4971245;28;20645;-91
2023/12/21 17:26:08;;;;;;;0.70;0.70;;;;;;;12.03;100.00;98792.00;4964893;28;20094;-91
2023/12/21 17:28:34;;;;;;;0.70;0.70;;;;;;;12.03;100.00;98795.56;4976359;28;20049;-91
2023/12/21 17:31:00;;;;;;;0.70;0.70;;;;;;;11.97;100.00;98785.25;4973034;28;20025;-90
2023/12/21 17:33:26;;;;;;;0.60;0.60;;;;;;;11.75;100.00;98758.13;4973828;28;20466;-91
2023/12/21 18:49:05;;;;;;;0.60;0.60;;;;;;;12.50;100.00;98854.97;1296920;23;20295;-91
2023/12/21 18:51:33;;;;;;;0.55;0.55;;;;;;;12.43;100.00;98850.06;4991627;28;20026;-91